CheckWX is a tool to help pilots better visualize weather data.  It is not intended as a substitute for an official pre-flight weather briefing.

18:01:52 UTC

KFZG METAR
Fitzgerald Municipal Airport
Fitzgerald, Georgia, USA
Current

27 mins ago

KFZG 171735Z AUTO 21008KT 10SM SCT026 SCT049 BKN060 24/18 A2998 RMK AO2 T02410183 PWINO
Observed
Feb-17 @ 17:35 UTC
Wind
  • 210° at 8 KTS
Visibility
10 SM
Flight Rules
VFR
Cloud Levels
  • Scattered at 2,600' AGL
  • Scattered at 4,900' AGL
  • Broken at 6,000' AGL
Temperature
24°C / 75°F
Dewpoint
18°C / 64°F
Humidity
69%
Altimeter
29.98" Hg
Pressure
1015.22 hPa
Previous

47 mins ago

KFZG 171715Z AUTO 22004KT 10SM SCT028 SCT060 24/19 A2999 RMK AO2 T02420185 PWINO
Observed
Feb-17 @ 17:15 UTC
Wind
  • 220° at 4 KTS
Visibility
10 SM
Flight Rules
VFR
Cloud Levels
  • Scattered at 2,800' AGL
  • Scattered at 6,000' AGL
Temperature
24°C / 75°F
Dewpoint
19°C / 66°F
Humidity
74%
Altimeter
29.99" Hg
Pressure
1015.62 hPa
Previous

1 hour ago

KFZG 171655Z AUTO 20006KT 10SM SCT022 SCT028 BKN050 24/19 A2999 RMK AO2 T02360187 PWINO
Observed
Feb-17 @ 16:55 UTC
Wind
  • 200° at 6 KTS
Visibility
10 SM
Flight Rules
VFR
Cloud Levels
  • Scattered at 2,200' AGL
  • Scattered at 2,800' AGL
  • Broken at 5,000' AGL
Temperature
24°C / 75°F
Dewpoint
19°C / 66°F
Humidity
74%
Altimeter
29.99" Hg
Pressure
1015.62 hPa